createdAt,value
2022-11-27T00:00:37.865Z,22.61
2022-11-27T00:02:40.949Z,22.61
2022-11-27T00:04:43.098Z,22.59
2022-11-27T00:06:44.875Z,22.58
2022-11-27T00:08:46.657Z,22.59
2022-11-27T00:10:48.518Z,22.58
2022-11-27T00:12:50.312Z,22.58
2022-11-27T00:14:55.481Z,22.57
2022-11-27T00:16:57.514Z,22.58
2022-11-27T00:18:59.353Z,22.57
2022-11-27T00:21:09.366Z,22.57
2022-11-27T00:23:11.173Z,22.56
2022-11-27T00:25:12.956Z,22.58
2022-11-27T00:27:14.988Z,22.57
2022-11-27T00:29:16.712Z,22.57
2022-11-27T00:31:20.680Z,22.56
2022-11-27T00:33:22.542Z,22.56
2022-11-27T00:35:24.276Z,22.57
2022-11-27T00:37:26.095Z,22.57
2022-11-27T00:39:27.879Z,22.59
2022-11-27T00:41:30.249Z,22.60
2022-11-27T00:43:39.832Z,22.58
2022-11-27T00:45:49.530Z,22.59
2022-11-27T00:47:51.194Z,22.60
2022-11-27T00:49:52.867Z,22.58
2022-11-27T00:51:54.652Z,22.57
2022-11-27T00:53:56.722Z,22.57
2022-11-27T00:55:58.515Z,22.57
2022-11-27T00:58:00.240Z,22.58
2022-11-27T01:00:01.985Z,22.59
2022-11-27T01:02:03.796Z,22.58
2022-11-27T01:04:06.480Z,22.58
2022-11-27T01:06:08.176Z,22.57
2022-11-27T01:08:09.996Z,22.57
2022-11-27T01:10:12.135Z,22.55
2022-11-27T01:12:13.967Z,22.55
2022-11-27T01:14:16.608Z,22.54
2022-11-27T01:16:23.340Z,22.52
2022-11-27T01:18:25.168Z,22.52
2022-11-27T01:20:26.888Z,22.52
2022-11-27T01:22:28.573Z,22.51
2022-11-27T01:24:30.422Z,22.52
2022-11-27T01:26:32.346Z,22.51
2022-11-27T01:28:34.478Z,22.52
2022-11-27T01:30:38.352Z,22.53
2022-11-27T01:32:40.147Z,22.55
2022-11-27T01:34:42.220Z,22.56
2022-11-27T01:36:44.302Z,22.57
2022-11-27T01:38:46.041Z,22.58
2022-11-27T01:40:47.799Z,22.58
2022-11-27T01:42:49.611Z,22.59
2022-11-27T01:44:53.669Z,22.58
2022-11-27T01:47:12.234Z,22.58
2022-11-27T01:49:28.175Z,22.58
2022-11-27T01:51:29.834Z,22.56
2022-11-27T01:53:31.551Z,22.56
2022-11-27T01:55:37.712Z,22.55
2022-11-27T01:57:47.079Z,22.55
2022-11-27T01:59:48.876Z,22.55
2022-11-27T02:01:50.658Z,22.54
2022-11-27T02:03:57.856Z,22.54
2022-11-27T02:05:59.584Z,22.53
2022-11-27T02:08:03.727Z,22.52
2022-11-27T02:10:06.359Z,22.48
2022-11-27T02:12:07.921Z,22.49
2022-11-27T02:14:13.972Z,22.49
2022-11-27T02:16:21.946Z,22.51
2022-11-27T02:18:58.663Z,22.52
2022-11-27T02:21:24.811Z,22.54
2022-11-27T02:24:04.418Z,22.55
2022-11-27T02:26:08.734Z,22.54
2022-11-27T02:28:22.161Z,22.53
2022-11-27T02:30:23.966Z,22.52
2022-11-27T02:32:29.692Z,22.51
2022-11-27T02:34:36.514Z,22.50
2022-11-27T02:36:38.365Z,22.51
2022-11-27T02:38:46.835Z,22.50
2022-11-27T02:40:54.936Z,22.50
2022-11-27T02:43:04.470Z,22.50
2022-11-27T02:45:11.815Z,22.51
2022-11-27T02:47:14.031Z,22.52
2022-11-27T02:49:17.175Z,22.54
2022-11-27T02:51:22.105Z,22.53
2022-11-27T02:53:30.819Z,22.52
2022-11-27T02:55:34.372Z,22.52
2022-11-27T02:57:36.036Z,22.53
2022-11-27T02:59:38.014Z,22.52
2022-11-27T03:01:45.368Z,22.53
2022-11-27T03:03:48.516Z,22.52
2022-11-27T03:05:51.411Z,22.52
2022-11-27T03:08:07.650Z,22.52
2022-11-27T03:10:16.070Z,22.51
2022-11-27T03:12:17.859Z,22.52
2022-11-27T03:14:19.682Z,22.51
2022-11-27T03:16:27.380Z,22.51
2022-11-27T03:18:47.909Z,22.54
2022-11-27T03:20:51.182Z,22.53
2022-11-27T03:22:54.471Z,22.54
2022-11-27T03:24:56.167Z,22.54
2022-11-27T03:26:58.427Z,22.56
2022-11-27T03:29:00.292Z,22.54
2022-11-27T03:31:02.058Z,22.55
2022-11-27T03:33:04.051Z,22.55
2022-11-27T03:35:07.128Z,22.55
2022-11-27T03:37:08.849Z,22.54
2022-11-27T03:39:10.630Z,22.53
2022-11-27T03:41:35.151Z,22.53
2022-11-27T03:43:42.227Z,22.54
2022-11-27T03:46:00.093Z,22.55
2022-11-27T03:48:17.507Z,22.53
2022-11-27T03:50:19.106Z,22.52
2022-11-27T03:52:27.435Z,22.52
2022-11-27T03:54:51.024Z,22.49
2022-11-27T03:56:55.194Z,22.52
2022-11-27T03:59:02.104Z,22.51
2022-11-27T04:01:05.909Z,22.52
2022-11-27T04:03:10.330Z,22.53
2022-11-27T04:05:12.048Z,22.56
2022-11-27T04:07:17.103Z,22.56
2022-11-27T04:09:19.481Z,22.56
2022-11-27T04:11:21.184Z,22.56
2022-11-27T04:13:22.913Z,22.56
2022-11-27T04:15:24.607Z,22.57
2022-11-27T04:17:26.597Z,22.57
2022-11-27T04:19:28.413Z,22.56
2022-11-27T04:21:30.195Z,22.57
2022-11-27T04:23:31.909Z,22.56
2022-11-27T04:25:33.634Z,22.56
2022-11-27T04:27:35.495Z,22.57
2022-11-27T04:29:37.184Z,22.56
2022-11-27T04:31:38.947Z,22.57
2022-11-27T04:33:40.831Z,22.55
2022-11-27T04:35:42.604Z,22.55
2022-11-27T04:37:44.615Z,22.57
2022-11-27T04:39:46.543Z,22.58
2022-11-27T04:41:48.272Z,22.58
2022-11-27T04:43:49.964Z,22.57
2022-11-27T04:45:51.994Z,22.57
2022-11-27T04:47:53.703Z,22.57
2022-11-27T04:49:55.392Z,22.57
2022-11-27T04:51:57.130Z,22.58
2022-11-27T04:53:58.924Z,22.59
2022-11-27T04:56:00.836Z,22.60
2022-11-27T04:58:02.619Z,22.59
2022-11-27T05:00:05.287Z,22.58
2022-11-27T05:02:07.022Z,22.56
2022-11-27T05:04:08.802Z,22.55
2022-11-27T05:06:10.530Z,22.55
2022-11-27T05:08:12.299Z,22.54
2022-11-27T05:10:14.113Z,22.54
2022-11-27T05:12:16.304Z,22.55
2022-11-27T05:14:18.330Z,22.55
2022-11-27T05:16:20.279Z,22.57
2022-11-27T05:18:22.239Z,22.59
2022-11-27T05:20:27.065Z,22.59
2022-11-27T05:22:30.055Z,22.61
2022-11-27T05:24:32.051Z,22.60
2022-11-27T05:26:34.098Z,22.59
2022-11-27T05:28:35.803Z,22.58
2022-11-27T05:30:37.628Z,22.58
2022-11-27T05:32:41.571Z,22.58
2022-11-27T05:34:43.458Z,22.59
2022-11-27T05:36:45.551Z,22.58
2022-11-27T05:38:47.296Z,22.57
2022-11-27T05:40:49.282Z,22.57
2022-11-27T05:42:51.014Z,22.57
2022-11-27T05:44:57.819Z,22.57
2022-11-27T05:46:59.930Z,22.57
2022-11-27T05:49:02.730Z,22.58
2022-11-27T05:51:04.885Z,22.63
2022-11-27T05:53:06.598Z,22.68
2022-11-27T05:55:08.949Z,22.74
2022-11-27T05:57:10.663Z,22.78
2022-11-27T05:59:12.529Z,22.83
2022-11-27T06:01:14.895Z,22.86
2022-11-27T06:03:16.872Z,22.89
2022-11-27T06:05:18.858Z,22.92
2022-11-27T06:07:20.721Z,22.96
2022-11-27T06:09:22.487Z,23.00
2022-11-27T06:11:24.267Z,23.05
2022-11-27T06:13:26.312Z,23.12
2022-11-27T06:15:28.542Z,23.16
2022-11-27T06:17:30.688Z,23.23
2022-11-27T06:19:32.614Z,23.32
2022-11-27T06:21:34.583Z,23.40
2022-11-27T06:23:36.395Z,23.49
2022-11-27T06:25:38.301Z,23.60
2022-11-27T06:27:40.047Z,23.70
2022-11-27T06:29:42.045Z,23.80
2022-11-27T06:31:43.797Z,23.90
2022-11-27T06:33:49.237Z,23.99
2022-11-27T06:35:51.149Z,24.09
2022-11-27T06:37:52.811Z,24.17
2022-11-27T06:39:54.726Z,24.26
2022-11-27T06:41:56.439Z,24.33
2022-11-27T06:43:58.830Z,24.40
2022-11-27T06:46:00.967Z,24.45
2022-11-27T06:48:02.821Z,24.44
2022-11-27T06:50:05.317Z,24.43
2022-11-27T06:52:07.149Z,24.40
2022-11-27T06:54:08.908Z,24.38
2022-11-27T06:56:15.082Z,24.36
2022-11-27T06:58:16.803Z,24.35
2022-11-27T07:00:19.407Z,24.33
2022-11-27T07:02:21.364Z,24.32
2022-11-27T07:04:23.233Z,24.32
2022-11-27T07:06:25.826Z,24.31
2022-11-27T07:08:27.928Z,24.30
2022-11-27T07:10:29.714Z,24.30
2022-11-27T07:12:31.465Z,24.31
2022-11-27T07:14:33.384Z,24.30
2022-11-27T07:16:36.432Z,24.32
2022-11-27T07:18:49.384Z,24.31
2022-11-27T07:20:56.232Z,24.30
2022-11-27T07:22:58.481Z,24.31
2022-11-27T07:25:00.220Z,24.31
2022-11-27T07:27:02.004Z,24.31
2022-11-27T07:29:04.205Z,24.31
2022-11-27T07:31:06.400Z,24.32
2022-11-27T07:33:08.516Z,24.32
2022-11-27T07:35:10.223Z,24.32
2022-11-27T07:37:11.936Z,24.32
2022-11-27T07:39:13.695Z,24.32
2022-11-27T07:41:15.443Z,24.32
2022-11-27T07:43:19.631Z,24.38
2022-11-27T07:45:21.432Z,24.45
2022-11-27T07:47:23.103Z,24.52
2022-11-27T07:49:24.849Z,24.62
2022-11-27T07:51:26.668Z,24.71
2022-11-27T07:53:28.360Z,24.77
2022-11-27T07:55:30.256Z,24.86
2022-11-27T07:57:32.130Z,24.93
2022-11-27T07:59:34.105Z,24.99
2022-11-27T08:01:35.973Z,25.03
2022-11-27T08:03:38.084Z,25.10
2022-11-27T08:05:39.782Z,25.10
2022-11-27T08:07:41.566Z,25.13
2022-11-27T08:09:43.338Z,25.16
2022-11-27T08:11:45.007Z,25.17
2022-11-27T08:13:46.954Z,25.19
2022-11-27T08:15:48.655Z,25.23
2022-11-27T08:17:50.458Z,25.24
2022-11-27T08:19:52.216Z,25.29
2022-11-27T08:21:53.996Z,25.30
2022-11-27T08:23:56.835Z,25.33
2022-11-27T08:25:58.540Z,25.35
2022-11-27T08:28:00.322Z,25.38
2022-11-27T08:30:02.836Z,25.39
2022-11-27T08:32:05.172Z,25.41
2022-11-27T08:34:06.945Z,25.42
2022-11-27T08:36:13.679Z,25.45
2022-11-27T08:38:19.303Z,25.47
2022-11-27T08:40:20.921Z,25.46
2022-11-27T08:42:23.096Z,25.49
2022-11-27T08:44:25.024Z,25.52
2022-11-27T08:46:26.795Z,25.50
2022-11-27T08:48:28.531Z,25.52
2022-11-27T08:50:30.284Z,25.52
2022-11-27T08:52:32.138Z,25.54
2022-11-27T08:54:35.461Z,25.52
2022-11-27T08:56:37.188Z,25.48
2022-11-27T08:58:38.927Z,25.44
2022-11-27T09:00:40.784Z,25.39
2022-11-27T09:02:42.525Z,25.37
2022-11-27T09:04:44.791Z,25.30
2022-11-27T09:06:46.514Z,25.25
2022-11-27T09:08:48.426Z,25.23
2022-11-27T09:10:50.129Z,25.21
2022-11-27T09:12:51.911Z,25.19
2022-11-27T09:14:53.613Z,25.22
2022-11-27T09:16:55.351Z,25.22
2022-11-27T09:18:57.442Z,25.19
2022-11-27T09:21:04.247Z,25.20
2022-11-27T09:23:10.143Z,25.17
2022-11-27T09:25:17.644Z,25.16
2022-11-27T09:27:19.380Z,25.19
2022-11-27T09:29:21.207Z,25.20
2022-11-27T09:31:24.378Z,25.21
2022-11-27T09:33:26.803Z,25.20
2022-11-27T09:35:28.619Z,25.19
2022-11-27T09:37:30.400Z,25.19
2022-11-27T09:39:32.070Z,25.17
2022-11-27T09:41:39.926Z,25.17
2022-11-27T09:43:56.266Z,25.17
2022-11-27T09:46:00.563Z,25.19
2022-11-27T09:48:05.037Z,25.18
2022-11-27T09:50:12.815Z,25.20
2022-11-27T09:52:29.768Z,25.21
2022-11-27T09:54:41.509Z,25.21
2022-11-27T09:56:44.013Z,25.23
2022-11-27T09:59:07.533Z,25.23
2022-11-27T10:01:14.230Z,25.23
2022-11-27T10:03:18.967Z,25.26
2022-11-27T10:05:23.675Z,25.26
2022-11-27T10:07:31.660Z,25.27
2022-11-27T10:09:33.964Z,25.15
2022-11-27T10:11:48.866Z,25.09
2022-11-27T10:14:04.060Z,24.98
2022-11-27T10:16:12.121Z,24.88
2022-11-27T10:18:39.509Z,24.78
2022-11-27T10:20:49.696Z,24.65
2022-11-27T10:23:04.912Z,24.56
2022-11-27T10:25:24.668Z,24.50
2022-11-27T10:27:53.059Z,24.43
2022-11-27T10:29:55.957Z,24.36
2022-11-27T10:32:26.801Z,24.30
2022-11-27T10:34:52.268Z,24.24
2022-11-27T10:36:54.889Z,24.23
2022-11-27T10:38:57.427Z,24.20
2022-11-27T10:41:34.402Z,24.14
2022-11-27T10:43:34.736Z,24.09
2022-11-27T10:45:53.225Z,24.04
2022-11-27T10:48:04.620Z,24.00
2022-11-27T10:50:19.806Z,23.96
2022-11-27T10:52:22.409Z,23.92
2022-11-27T10:54:39.213Z,23.88
2022-11-27T10:57:03.419Z,23.84
2022-11-27T10:59:19.092Z,23.79
2022-11-27T11:01:22.867Z,23.77
2022-11-27T11:03:28.979Z,23.75
2022-11-27T11:06:04.815Z,23.73
2022-11-27T11:08:24.166Z,23.70
2022-11-27T11:10:51.273Z,23.69
2022-11-27T11:13:19.875Z,23.68
2022-11-27T11:15:22.395Z,23.67
2022-11-27T11:17:29.316Z,23.66
2022-11-27T11:19:35.793Z,23.64
2022-11-27T11:21:42.153Z,23.61
2022-11-27T11:23:44.630Z,23.60
2022-11-27T11:25:53.813Z,23.59
2022-11-27T11:27:56.525Z,23.59
2022-11-27T11:30:00.871Z,23.57
2022-11-27T11:32:10.328Z,23.55
2022-11-27T11:34:44.888Z,23.52
2022-11-27T11:37:03.384Z,23.49
2022-11-27T11:39:21.639Z,23.47
2022-11-27T11:41:24.137Z,23.46
2022-11-27T11:43:28.276Z,23.43
2022-11-27T11:45:33.101Z,23.43
2022-11-27T11:47:36.157Z,23.45
2022-11-27T11:49:38.641Z,23.45
2022-11-27T11:52:02.664Z,23.45
2022-11-27T11:54:37.189Z,23.46
2022-11-27T11:56:41.979Z,23.45
2022-11-27T11:59:00.958Z,23.44
2022-11-27T12:01:30.135Z,23.42
2022-11-27T12:03:52.605Z,23.41
2022-11-27T12:06:15.779Z,23.41
2022-11-27T12:08:54.596Z,23.43
2022-11-27T12:11:18.954Z,23.43
2022-11-27T12:13:58.285Z,23.44
2022-11-27T12:16:21.502Z,23.42
2022-11-27T12:19:11.464Z,23.42
2022-11-27T12:21:37.108Z,23.40
2022-11-27T12:23:49.243Z,23.40
2022-11-27T12:26:09.868Z,23.39
2022-11-27T12:28:58.949Z,23.38
2022-11-27T12:31:10.765Z,23.39
2022-11-27T12:33:12.396Z,23.40
2022-11-27T12:35:29.292Z,23.40
2022-11-27T12:37:41.585Z,23.37
2022-11-27T12:40:05.590Z,23.37
2022-11-27T12:42:13.626Z,23.37
2022-11-27T12:44:44.818Z,23.36
2022-11-27T12:46:57.129Z,23.35
2022-11-27T12:49:01.941Z,23.35
2022-11-27T12:51:08.236Z,23.36
2022-11-27T12:53:28.171Z,23.35
2022-11-27T12:55:31.554Z,23.37
2022-11-27T12:57:42.692Z,23.38
2022-11-27T12:59:57.720Z,23.39
2022-11-27T13:02:05.692Z,23.40
2022-11-27T13:04:36.485Z,23.42
2022-11-27T13:06:54.474Z,23.45
2022-11-27T13:09:05.250Z,23.46
2022-11-27T13:11:10.958Z,23.45
2022-11-27T13:13:27.097Z,23.46
2022-11-27T13:15:58.212Z,23.45
2022-11-27T13:18:21.339Z,23.43
2022-11-27T13:20:28.664Z,23.38
2022-11-27T13:22:32.394Z,23.38
2022-11-27T13:24:34.986Z,23.40
2022-11-27T13:26:59.279Z,23.40
2022-11-27T13:29:23.065Z,23.41
2022-11-27T13:31:34.040Z,23.41
2022-11-27T13:33:43.157Z,23.37
2022-11-27T13:35:45.121Z,23.35
2022-11-27T13:37:47.161Z,23.33
2022-11-27T13:39:49.142Z,23.30
2022-11-27T13:42:04.685Z,23.30
2022-11-27T13:44:40.375Z,23.30
2022-11-27T13:46:45.465Z,23.28
2022-11-27T13:48:50.471Z,23.26
2022-11-27T13:50:52.187Z,23.27
2022-11-27T13:53:05.455Z,23.28
2022-11-27T13:55:08.366Z,23.27
2022-11-27T13:57:17.257Z,23.26
2022-11-27T13:59:19.827Z,23.23
2022-11-27T14:01:26.064Z,23.21
2022-11-27T14:03:29.359Z,23.23
2022-11-27T14:05:42.167Z,23.21
2022-11-27T14:07:48.812Z,23.20
2022-11-27T14:09:54.408Z,23.19
2022-11-27T14:11:56.267Z,23.20
2022-11-27T14:13:58.121Z,23.20
2022-11-27T14:16:00.988Z,23.21
2022-11-27T14:18:16.878Z,23.23
2022-11-27T14:20:18.520Z,23.24
2022-11-27T14:23:09.837Z,23.25
2022-11-27T14:25:20.388Z,23.23
2022-11-27T14:27:28.478Z,23.22
2022-11-27T14:29:30.756Z,23.21
2022-11-27T14:31:33.990Z,23.22
2022-11-27T14:33:59.651Z,23.24
2022-11-27T14:35:59.300Z,23.23
2022-11-27T14:38:11.018Z,23.25
2022-11-27T14:40:28.625Z,23.25
2022-11-27T14:42:34.066Z,23.26
2022-11-27T14:44:38.328Z,23.28
2022-11-27T14:46:40.674Z,23.28
2022-11-27T14:48:49.900Z,23.31
2022-11-27T14:50:53.165Z,23.31
2022-11-27T14:52:55.863Z,23.31
2022-11-27T14:54:58.133Z,23.31
2022-11-27T14:56:59.882Z,23.29
2022-11-27T14:59:01.919Z,23.28
2022-11-27T15:01:05.883Z,23.26
2022-11-27T15:03:08.978Z,23.25
2022-11-27T15:05:25.344Z,23.23
2022-11-27T15:07:29.039Z,23.19
2022-11-27T15:09:32.425Z,23.17
2022-11-27T15:11:54.629Z,23.16
2022-11-27T15:14:00.334Z,23.15
2022-11-27T15:16:17.426Z,23.14
2022-11-27T15:18:21.598Z,23.15
2022-11-27T15:20:38.444Z,23.14
2022-11-27T15:22:40.441Z,23.14
2022-11-27T15:24:43.255Z,23.16
2022-11-27T15:26:45.435Z,23.21
2022-11-27T15:28:53.784Z,23.30
2022-11-27T15:30:56.293Z,23.40
2022-11-27T15:32:58.309Z,23.53
2022-11-27T15:35:00.215Z,23.66
2022-11-27T15:37:02.415Z,23.79
2022-11-27T15:39:10.055Z,23.91
2022-11-27T15:41:29.212Z,24.05
2022-11-27T15:43:31.062Z,24.16
2022-11-27T15:45:33.486Z,24.27
2022-11-27T15:47:38.688Z,24.36
2022-11-27T15:49:40.904Z,24.47
2022-11-27T15:51:42.960Z,24.56
2022-11-27T15:53:44.676Z,24.63
2022-11-27T15:55:46.652Z,24.71
2022-11-27T15:57:48.835Z,24.77
2022-11-27T15:59:51.095Z,24.83
2022-11-27T16:01:52.850Z,24.87
2022-11-27T16:03:54.718Z,24.93
2022-11-27T16:05:56.767Z,24.98
2022-11-27T16:07:59.044Z,25.03
2022-11-27T16:10:00.896Z,25.08
2022-11-27T16:12:03.216Z,25.12
2022-11-27T16:14:05.022Z,25.17
2022-11-27T16:16:08.329Z,25.18
2022-11-27T16:18:10.304Z,25.19
2022-11-27T16:20:12.580Z,25.22
2022-11-27T16:22:14.568Z,25.24
2022-11-27T16:24:16.310Z,25.27
2022-11-27T16:26:18.141Z,25.29
2022-11-27T16:28:19.869Z,25.31
2022-11-27T16:30:22.494Z,25.36
2022-11-27T16:32:24.196Z,25.36
2022-11-27T16:34:26.265Z,25.40
2022-11-27T16:36:28.194Z,25.43
2022-11-27T16:38:30.022Z,25.45
2022-11-27T16:40:32.461Z,25.45
2022-11-27T16:42:34.320Z,25.46
2022-11-27T16:44:36.366Z,25.48
2022-11-27T16:46:39.658Z,25.50
2022-11-27T16:48:42.441Z,25.52
2022-11-27T16:50:44.237Z,25.55
2022-11-27T16:52:52.833Z,25.57
2022-11-27T16:54:55.935Z,25.55
2022-11-27T16:56:57.758Z,25.55
2022-11-27T16:59:03.115Z,25.57
2022-11-27T17:01:07.333Z,25.58
2022-11-27T17:03:09.367Z,25.61
2022-11-27T17:05:11.668Z,25.59
2022-11-27T17:07:16.015Z,25.62
2022-11-27T17:09:18.267Z,25.61
2022-11-27T17:11:22.314Z,25.61
2022-11-27T17:13:24.375Z,25.56
2022-11-27T17:15:26.229Z,25.59
2022-11-27T17:17:28.187Z,25.58
2022-11-27T17:19:29.884Z,25.57
2022-11-27T17:21:34.087Z,25.58
2022-11-27T17:23:35.953Z,25.61
2022-11-27T17:25:38.039Z,25.63
2022-11-27T17:27:40.171Z,25.63
2022-11-27T17:29:42.439Z,25.64
2022-11-27T17:31:45.868Z,25.65
2022-11-27T17:33:48.000Z,25.68
2022-11-27T17:35:50.515Z,25.71
2022-11-27T17:37:52.694Z,25.76
2022-11-27T17:39:54.785Z,25.76
2022-11-27T17:41:56.672Z,25.77
2022-11-27T17:43:58.946Z,25.75
2022-11-27T17:46:01.545Z,25.73
2022-11-27T17:48:03.475Z,25.72
2022-11-27T17:50:07.113Z,25.71
2022-11-27T17:52:09.014Z,25.69
2022-11-27T17:54:11.246Z,25.72
2022-11-27T17:56:14.743Z,25.73
2022-11-27T17:58:16.504Z,25.73
2022-11-27T18:00:18.464Z,25.66
2022-11-27T18:02:20.455Z,25.62
2022-11-27T18:04:22.634Z,25.54
2022-11-27T18:06:24.410Z,25.46
2022-11-27T18:08:26.260Z,25.31
2022-11-27T18:10:28.115Z,25.19
2022-11-27T18:12:30.000Z,25.07
2022-11-27T18:14:32.142Z,24.96
2022-11-27T18:16:36.628Z,24.87
2022-11-27T18:18:38.585Z,24.78
2022-11-27T18:20:41.303Z,24.73
2022-11-27T18:22:43.434Z,24.64
2022-11-27T18:24:46.919Z,24.58
2022-11-27T18:29:11.194Z,24.44
2022-11-27T18:31:14.794Z,24.39
2022-11-27T18:33:16.825Z,24.42
2022-11-27T18:35:18.974Z,24.49
2022-11-27T18:37:20.747Z,24.56
2022-11-27T18:39:22.901Z,24.63
2022-11-27T18:41:25.700Z,24.67
2022-11-27T18:43:27.502Z,24.72
2022-11-27T18:45:33.363Z,24.74
2022-11-27T18:47:37.710Z,24.78
2022-11-27T18:49:40.065Z,24.81
2022-11-27T18:51:42.508Z,24.85
2022-11-27T18:53:44.681Z,24.86
2022-11-27T18:55:52.571Z,24.86
2022-11-27T18:58:07.875Z,24.87
2022-11-27T19:00:10.487Z,24.88
2022-11-27T19:02:12.664Z,24.88
2022-11-27T19:04:14.740Z,24.88
2022-11-27T19:06:17.217Z,24.86
2022-11-27T19:08:19.024Z,24.82
2022-11-27T19:10:20.952Z,24.79
2022-11-27T19:12:22.714Z,24.77
2022-11-27T19:14:24.421Z,24.73
2022-11-27T19:16:28.235Z,24.69
2022-11-27T19:18:30.156Z,24.64
2022-11-27T19:20:32.073Z,24.69
2022-11-27T19:22:34.133Z,24.73
2022-11-27T19:24:37.029Z,24.75
2022-11-27T19:26:38.902Z,24.76
2022-11-27T19:28:40.858Z,24.80
2022-11-27T19:30:43.482Z,24.83
2022-11-27T19:32:45.897Z,24.84
2022-11-27T19:34:50.199Z,24.85
2022-11-27T19:36:52.217Z,24.87
2022-11-27T19:38:58.346Z,24.87
2022-11-27T19:41:00.322Z,24.88
2022-11-27T19:43:02.128Z,24.87
2022-11-27T19:45:04.405Z,24.89
2022-11-27T19:47:06.212Z,24.88
2022-11-27T19:49:10.743Z,24.88
2022-11-27T19:51:12.652Z,24.87
2022-11-27T19:53:14.420Z,24.90
2022-11-27T19:55:16.807Z,24.95
2022-11-27T19:57:18.717Z,24.97
2022-11-27T19:59:25.525Z,25.01
2022-11-27T20:01:27.928Z,25.02
2022-11-27T20:03:30.119Z,25.08
2022-11-27T20:05:32.105Z,25.10
2022-11-27T20:07:33.906Z,25.13
2022-11-27T20:09:35.744Z,25.14
2022-11-27T20:11:37.891Z,25.17
2022-11-27T20:13:39.925Z,25.19
2022-11-27T20:15:41.617Z,25.22
2022-11-27T20:17:43.791Z,25.23
2022-11-27T20:19:45.487Z,25.26
2022-11-27T20:21:47.758Z,25.27
2022-11-27T20:23:50.422Z,25.29
2022-11-27T20:25:52.207Z,25.29
2022-11-27T20:27:55.575Z,25.29
2022-11-27T20:29:57.305Z,25.30
2022-11-27T20:31:59.211Z,25.31
2022-11-27T20:34:02.323Z,25.30
2022-11-27T20:36:04.074Z,25.36
2022-11-27T20:38:05.809Z,25.36
2022-11-27T20:40:08.034Z,25.34
2022-11-27T20:42:09.791Z,25.29
2022-11-27T20:44:11.729Z,25.24
2022-11-27T20:46:16.896Z,25.21
2022-11-27T20:48:18.692Z,25.16
2022-11-27T20:50:20.381Z,25.13
2022-11-27T20:52:22.095Z,25.11
2022-11-27T20:54:23.818Z,25.08
2022-11-27T20:56:25.591Z,25.07
2022-11-27T20:58:27.262Z,25.03
2022-11-27T21:00:28.993Z,25.00
2022-11-27T21:02:30.915Z,24.96
2022-11-27T21:04:32.665Z,24.95
2022-11-27T21:06:38.033Z,24.93
2022-11-27T21:08:42.451Z,24.91
2022-11-27T21:10:44.160Z,24.89
2022-11-27T21:12:46.090Z,24.86
2022-11-27T21:14:47.916Z,24.85
2022-11-27T21:16:50.143Z,24.82
2022-11-27T21:18:59.087Z,24.81
2022-11-27T21:21:08.308Z,24.77
2022-11-27T21:23:09.964Z,24.74
2022-11-27T21:25:11.707Z,24.72
2022-11-27T21:27:13.429Z,24.71
2022-11-27T21:29:15.496Z,24.68
2022-11-27T21:31:19.539Z,24.66
2022-11-27T21:33:21.287Z,24.64
2022-11-27T21:35:26.395Z,24.62
2022-11-27T21:37:30.346Z,24.60
2022-11-27T21:39:32.041Z,24.59
2022-11-27T21:41:34.189Z,24.57
2022-11-27T21:43:35.885Z,24.56
2022-11-27T21:45:37.704Z,24.56
2022-11-27T21:47:39.665Z,24.55
2022-11-27T21:49:42.523Z,24.53
2022-11-27T21:51:44.230Z,24.52
2022-11-27T21:53:46.187Z,24.52
2022-11-27T21:55:47.995Z,24.50
2022-11-27T21:57:49.704Z,24.49
2022-11-27T21:59:51.438Z,24.49
2022-11-27T22:01:53.284Z,24.49
2022-11-27T22:03:55.208Z,24.46
2022-11-27T22:05:58.318Z,24.44
2022-11-27T22:08:00.094Z,24.44
2022-11-27T22:10:01.987Z,24.42
2022-11-27T22:12:03.895Z,24.38
2022-11-27T22:14:06.958Z,24.36
2022-11-27T22:16:13.249Z,24.36
2022-11-27T22:18:14.973Z,24.33
2022-11-27T22:20:16.746Z,24.31
2022-11-27T22:22:18.528Z,24.29
2022-11-27T22:24:20.202Z,24.27
2022-11-27T22:26:22.757Z,24.28
2022-11-27T22:28:24.508Z,24.26
2022-11-27T22:30:26.402Z,24.26
2022-11-27T22:32:28.135Z,24.26
2022-11-27T22:34:29.847Z,24.25
2022-11-27T22:36:33.120Z,24.24
2022-11-27T22:38:34.802Z,24.23
2022-11-27T22:40:36.590Z,24.23
2022-11-27T22:42:38.389Z,24.23
2022-11-27T22:44:40.359Z,24.22
2022-11-27T22:46:42.490Z,24.21
2022-11-27T22:48:44.512Z,24.22
2022-11-27T22:50:46.230Z,24.21
2022-11-27T22:52:48.002Z,24.20
2022-11-27T22:54:49.699Z,24.20
2022-11-27T22:56:51.405Z,24.21
2022-11-27T22:59:11.327Z,24.20
2022-11-27T23:01:20.494Z,24.20
2022-11-27T23:03:22.225Z,24.21
2022-11-27T23:05:24.283Z,24.20
2022-11-27T23:07:26.082Z,24.18
2022-11-27T23:09:27.931Z,24.17
2022-11-27T23:11:29.723Z,24.18
2022-11-27T23:13:31.535Z,24.17
2022-11-27T23:15:33.259Z,24.17
2022-11-27T23:17:34.975Z,24.17
2022-11-27T23:19:36.960Z,24.17
2022-11-27T23:21:38.917Z,24.17
2022-11-27T23:23:40.990Z,24.17
2022-11-27T23:25:42.681Z,24.17
2022-11-27T23:27:44.396Z,24.17
2022-11-27T23:29:46.155Z,24.16
2022-11-27T23:31:47.894Z,24.16
2022-11-27T23:33:49.922Z,24.16
2022-11-27T23:35:57.973Z,24.15
2022-11-27T23:37:59.703Z,24.15
2022-11-27T23:40:01.431Z,24.15
2022-11-27T23:42:03.292Z,24.14
2022-11-27T23:44:05.087Z,24.14
2022-11-27T23:46:07.793Z,24.14
2022-11-27T23:48:09.560Z,24.14
2022-11-27T23:50:11.565Z,24.13
2022-11-27T23:52:17.146Z,24.13
2022-11-27T23:54:19.203Z,24.13
2022-11-27T23:56:25.507Z,24.14
2022-11-27T23:58:27.202Z,24.14
